createdAt,value
2023-01-18T00:02:32.755Z,-1.36
2023-01-18T00:05:05.117Z,-1.41
2023-01-18T00:07:36.236Z,-1.46
2023-01-18T00:10:08.358Z,-1.47
2023-01-18T00:12:39.882Z,-1.47
2023-01-18T00:15:13.716Z,-1.48
2023-01-18T00:17:55.267Z,-1.49
2023-01-18T00:20:28.321Z,-1.51
2023-01-18T00:23:02.168Z,-1.55
2023-01-18T00:25:33.398Z,-1.58
2023-01-18T00:28:04.432Z,-1.63
2023-01-18T00:30:38.108Z,-1.66
2023-01-18T00:33:09.849Z,-1.69
2023-01-18T00:35:43.626Z,-1.71
2023-01-18T00:38:14.419Z,-1.72
2023-01-18T00:40:45.469Z,-1.73
2023-01-18T00:43:34.418Z,-1.75
2023-01-18T00:46:11.950Z,-1.74
2023-01-18T00:48:45.236Z,-1.72
2023-01-18T00:51:18.312Z,-1.69
2023-01-18T00:53:51.332Z,-1.64
2023-01-18T00:56:24.123Z,-1.61
2023-01-18T00:58:58.196Z,-1.59
2023-01-18T01:01:57.602Z,-1.60
2023-01-18T01:04:47.742Z,-1.60
2023-01-18T01:07:19.967Z,-1.61
2023-01-18T01:09:53.051Z,-1.64
2023-01-18T01:12:42.145Z,-1.67
2023-01-18T01:15:30.679Z,-1.70
2023-01-18T01:18:19.014Z,-1.70
2023-01-18T01:21:10.636Z,-1.66
2023-01-18T01:24:00.570Z,-1.65
2023-01-18T01:26:31.897Z,-1.69
2023-01-18T01:29:01.612Z,-1.72
2023-01-18T01:31:34.155Z,-1.75
2023-01-18T01:34:05.052Z,-1.77
2023-01-18T01:36:38.373Z,-1.78
2023-01-18T01:39:11.461Z,-1.78
2023-01-18T01:41:43.077Z,-1.76
2023-01-18T01:44:24.816Z,-1.75
2023-01-18T01:46:57.150Z,-1.74
2023-01-18T01:49:37.060Z,-1.73
2023-01-18T01:52:12.570Z,-1.71
2023-01-18T01:54:56.988Z,-1.70
2023-01-18T01:57:32.338Z,-1.70
2023-01-18T02:00:07.658Z,-1.74
2023-01-18T02:03:11.403Z,-1.76
2023-01-18T02:05:44.593Z,-1.78
2023-01-18T02:08:23.014Z,-1.81
2023-01-18T02:10:54.969Z,-1.79
2023-01-18T02:13:26.119Z,-1.76
2023-01-18T02:15:55.349Z,-1.73
2023-01-18T02:18:52.825Z,-1.67
2023-01-18T02:24:42.256Z,-1.60
2023-01-18T02:27:44.001Z,-1.65
2023-01-18T02:30:32.583Z,-1.67
2023-01-18T02:33:11.757Z,-1.66
2023-01-18T02:35:54.056Z,-1.63
2023-01-18T02:38:46.586Z,-1.59
2023-01-18T02:41:58.102Z,-1.57
2023-01-18T02:44:57.070Z,-1.54
2023-01-18T02:47:30.302Z,-1.48
2023-01-18T02:50:02.879Z,-1.43
2023-01-18T02:52:42.745Z,-1.45
2023-01-18T02:55:24.983Z,-1.49
2023-01-18T02:58:01.678Z,-1.52
2023-01-18T03:00:38.345Z,-1.53
2023-01-18T03:03:11.583Z,-1.51
2023-01-18T03:05:45.183Z,-1.48
2023-01-18T03:08:37.631Z,-1.43
2023-01-18T03:11:17.000Z,-1.35
2023-01-18T03:13:58.916Z,-1.31
2023-01-18T03:16:59.574Z,-1.32
2023-01-18T03:20:04.229Z,-1.32
2023-01-18T03:22:56.788Z,-1.30
2023-01-18T03:25:33.323Z,-1.27
2023-01-18T03:28:59.996Z,-1.24
2023-01-18T03:32:00.910Z,-1.19
2023-01-18T03:35:02.166Z,-1.12
2023-01-18T03:37:38.107Z,-1.07
2023-01-18T03:40:11.497Z,-1.03
2023-01-18T03:43:04.449Z,-1.00
2023-01-18T03:45:35.784Z,-0.97
2023-01-18T03:48:08.558Z,-0.96
2023-01-18T03:50:54.045Z,-0.95
2023-01-18T03:53:39.529Z,-0.95
2023-01-18T03:56:34.519Z,-0.98
2023-01-18T03:59:07.308Z,-1.00
2023-01-18T04:02:03.145Z,-0.97
2023-01-18T04:04:36.123Z,-0.92
2023-01-18T04:07:07.526Z,-0.92
2023-01-18T04:09:37.257Z,-0.96
2023-01-18T04:12:08.498Z,-0.97
2023-01-18T04:14:39.765Z,-0.98
2023-01-18T04:17:10.834Z,-0.94
2023-01-18T04:19:41.229Z,-0.91
2023-01-18T04:22:13.249Z,-0.85
2023-01-18T04:24:44.271Z,-0.79
2023-01-18T04:27:14.864Z,-0.75
2023-01-18T04:29:45.327Z,-0.70
2023-01-18T04:32:14.457Z,-0.65
2023-01-18T04:34:44.237Z,-0.62
2023-01-18T04:37:17.517Z,-0.60
2023-01-18T04:39:50.094Z,-0.57
2023-01-18T04:42:19.046Z,-0.55
2023-01-18T04:44:51.707Z,-0.54
2023-01-18T04:47:21.997Z,-0.52
2023-01-18T04:49:53.157Z,-0.49
2023-01-18T04:52:22.847Z,-0.47
2023-01-18T04:54:53.337Z,-0.45
2023-01-18T04:57:25.118Z,-0.44
2023-01-18T04:59:55.521Z,-0.44
2023-01-18T05:02:29.135Z,-0.40
2023-01-18T05:05:02.887Z,-0.38
2023-01-18T05:07:38.504Z,-0.36
2023-01-18T05:10:09.381Z,-0.33
2023-01-18T05:12:41.347Z,-0.30
2023-01-18T05:15:15.383Z,-0.27
2023-01-18T05:17:46.888Z,-0.25
2023-01-18T05:20:17.857Z,-0.23
2023-01-18T05:22:51.206Z,-0.23
2023-01-18T05:25:21.764Z,-0.22
2023-01-18T05:27:51.792Z,-0.22
2023-01-18T05:30:24.947Z,-0.20
2023-01-18T05:32:54.987Z,-0.19
2023-01-18T05:35:28.950Z,-0.16
2023-01-18T05:38:00.557Z,-0.15
2023-01-18T05:40:31.611Z,-0.11
2023-01-18T05:43:05.115Z,-0.09
2023-01-18T05:45:36.593Z,-0.07
2023-01-18T05:48:10.332Z,-0.08
2023-01-18T05:50:43.967Z,-0.08
2023-01-18T05:53:21.872Z,-0.08
2023-01-18T05:56:00.614Z,-0.08
2023-01-18T05:58:30.462Z,-0.08
2023-01-18T06:01:28.958Z,-0.05
2023-01-18T06:03:58.800Z,-0.01
2023-01-18T06:06:30.287Z,0.03
2023-01-18T06:09:00.708Z,0.08
2023-01-18T06:11:32.429Z,0.12
2023-01-18T06:14:02.476Z,0.14
2023-01-18T06:16:33.058Z,0.14
2023-01-18T06:19:04.869Z,0.13
2023-01-18T06:21:35.920Z,0.12
2023-01-18T06:24:08.052Z,0.11
2023-01-18T06:26:38.560Z,0.13
2023-01-18T06:29:07.860Z,0.15
2023-01-18T06:31:36.823Z,0.16
2023-01-18T06:34:09.777Z,0.14
2023-01-18T06:36:43.955Z,0.11
2023-01-18T06:39:15.662Z,0.09
2023-01-18T06:41:45.499Z,0.08
2023-01-18T06:44:19.422Z,0.08
2023-01-18T06:46:52.619Z,0.09
2023-01-18T06:49:22.162Z,0.09
2023-01-18T06:51:51.328Z,0.09
2023-01-18T06:54:23.554Z,0.11
2023-01-18T06:56:55.635Z,0.12
2023-01-18T06:59:29.257Z,0.10
2023-01-18T07:01:59.889Z,0.04
2023-01-18T07:04:30.575Z,-0.01
2023-01-18T07:06:59.792Z,0.01
2023-01-18T07:09:31.041Z,0.06
2023-01-18T07:12:01.528Z,0.11
2023-01-18T07:14:33.819Z,0.15
2023-01-18T07:17:02.962Z,0.20
2023-01-18T07:19:33.654Z,0.27
2023-01-18T07:22:04.800Z,0.36
2023-01-18T07:24:38.066Z,0.42
2023-01-18T07:27:09.910Z,0.46
2023-01-18T07:29:39.818Z,0.49
2023-01-18T07:32:11.322Z,0.51
2023-01-18T07:34:42.427Z,0.53
2023-01-18T07:37:15.161Z,0.56
2023-01-18T07:39:46.565Z,0.60
2023-01-18T07:42:16.886Z,0.63
2023-01-18T07:44:46.711Z,0.63
2023-01-18T07:47:50.355Z,0.64
2023-01-18T07:50:43.152Z,0.63
2023-01-18T07:53:36.327Z,0.63
2023-01-18T07:56:13.325Z,0.64
2023-01-18T07:58:50.012Z,0.62
2023-01-18T08:05:47.755Z,0.61
2023-01-18T08:08:20.470Z,0.55
2023-01-18T08:11:01.094Z,0.49
2023-01-18T08:13:35.350Z,0.46
2023-01-18T08:16:10.960Z,0.47
2023-01-18T08:19:03.678Z,0.52
2023-01-18T08:21:35.832Z,0.56
2023-01-18T08:24:09.158Z,0.63
2023-01-18T08:26:41.869Z,0.66
2023-01-18T08:29:15.334Z,0.69
2023-01-18T08:31:47.495Z,0.72
2023-01-18T08:34:19.411Z,0.76
2023-01-18T08:36:53.065Z,0.79
2023-01-18T08:39:24.020Z,0.80
2023-01-18T08:41:54.587Z,0.79
2023-01-18T08:44:26.626Z,0.81
2023-01-18T08:46:56.395Z,0.82
2023-01-18T08:49:36.757Z,0.82
2023-01-18T08:52:10.422Z,0.87
2023-01-18T08:54:43.163Z,0.88
2023-01-18T09:21:48.747Z,1.44
2023-01-18T09:25:14.988Z,1.53
2023-01-18T09:27:48.613Z,1.63
2023-01-18T09:30:19.782Z,1.67
2023-01-18T09:32:52.965Z,1.74
2023-01-18T09:35:24.231Z,1.81
2023-01-18T09:37:55.897Z,1.88
2023-01-18T09:40:45.795Z,1.95
2023-01-18T09:43:22.220Z,1.98
2023-01-18T09:45:55.419Z,2.00
2023-01-18T09:48:53.589Z,2.11
2023-01-18T09:51:31.343Z,2.33
2023-01-18T09:54:29.692Z,2.50
2023-01-18T09:57:19.717Z,2.69
2023-01-18T10:00:02.236Z,2.86
2023-01-18T10:02:40.720Z,3.00
2023-01-18T10:05:18.469Z,3.04
2023-01-18T10:08:17.071Z,3.01
2023-01-18T10:11:36.279Z,2.97
2023-01-18T10:14:26.044Z,2.95
2023-01-18T10:17:03.647Z,2.95
2023-01-18T10:19:34.529Z,2.95
2023-01-18T10:22:19.538Z,2.96
2023-01-18T10:25:14.963Z,2.85
2023-01-18T10:28:24.422Z,2.79
2023-01-18T10:31:10.778Z,2.73
2023-01-18T10:33:43.469Z,2.67
2023-01-18T10:36:27.361Z,2.65
2023-01-18T10:38:57.071Z,2.64
2023-01-18T10:41:34.400Z,2.63
2023-01-18T10:44:05.032Z,2.62
2023-01-18T10:46:34.452Z,2.60
2023-01-18T10:49:05.067Z,2.59
2023-01-18T10:51:38.092Z,2.55
2023-01-18T10:54:25.933Z,2.50
2023-01-18T10:57:05.147Z,2.47
2023-01-18T10:59:40.397Z,2.47
2023-01-18T11:02:24.198Z,2.43
2023-01-18T11:05:22.370Z,2.45
2023-01-18T11:08:33.237Z,2.46
2023-01-18T11:11:13.220Z,2.46
2023-01-18T11:13:47.221Z,2.45
2023-01-18T11:16:57.411Z,2.44
2023-01-18T11:19:27.898Z,2.42
2023-01-18T11:21:59.307Z,2.38
2023-01-18T11:24:47.358Z,2.38
2023-01-18T11:28:00.191Z,2.37
2023-01-18T11:31:13.866Z,2.34
2023-01-18T11:34:00.118Z,2.31
2023-01-18T11:36:41.244Z,2.28
2023-01-18T11:40:11.842Z,2.22
2023-01-18T11:43:29.643Z,2.17
2023-01-18T11:46:52.566Z,2.10
2023-01-18T11:50:21.064Z,2.05
2023-01-18T11:53:35.555Z,2.01
2023-01-18T11:56:29.389Z,2.01
2023-01-18T11:59:03.802Z,2.02
2023-01-18T12:02:20.434Z,2.02
2023-01-18T12:05:29.193Z,2.00
2023-01-18T12:22:07.671Z,1.86
2023-01-18T12:25:27.314Z,1.88
2023-01-18T12:32:11.441Z,1.85
2023-01-18T12:35:24.180Z,1.80
2023-01-18T12:38:35.909Z,1.77
2023-01-18T12:41:40.161Z,1.75
2023-01-18T12:45:09.966Z,1.76
2023-01-18T12:48:57.412Z,1.76
2023-01-18T12:53:06.977Z,1.74
2023-01-18T12:55:57.982Z,1.73
2023-01-18T12:58:58.996Z,1.70
2023-01-18T13:02:04.738Z,1.65
2023-01-18T13:04:50.220Z,1.62
2023-01-18T13:11:07.964Z,1.61
2023-01-18T13:14:39.603Z,1.60
2023-01-18T13:17:28.132Z,1.61
2023-01-18T13:20:07.620Z,1.60
2023-01-18T13:23:15.524Z,1.57
2023-01-18T13:26:52.625Z,1.56
2023-01-18T13:29:52.985Z,1.59
2023-01-18T13:33:12.191Z,1.60
2023-01-18T13:53:25.030Z,1.46
2023-01-18T14:03:41.257Z,1.46
2023-01-18T14:23:25.209Z,1.47
2023-01-18T14:31:01.056Z,1.49
2023-01-18T14:35:09.627Z,1.45
2023-01-18T14:39:06.232Z,1.42
2023-01-18T14:47:22.783Z,1.45
2023-01-18T14:50:34.777Z,1.45
2023-01-18T15:50:03.887Z,1.35
2023-01-18T18:32:59.183Z,2.10
